Time;durP1;ratioP1;P1;durP2;ratioP2;P2;SDS_P1;SDS_P2;PMS_P1;PMS_P2;Temp;Humidity;BMP_temperature;BMP_pressure;BME280_temperature;BME280_humidity;BME280_pressure;Samples;Min_cycle;Max_cycle;Signal;HPM_P1;HPM_P2
2021/09/01 00:02:21;;;;;;;4.50;2.67;;;21.40;93.60;;;;;;4969271;28;20035;-77
2021/09/01 00:04:46;;;;;;;6.30;2.63;;;21.40;93.60;;;;;;4953272;29;20027;-77
2021/09/01 00:07:12;;;;;;;4.10;2.33;;;21.40;93.60;;;;;;4952850;29;20392;-77
2021/09/01 00:09:38;;;;;;;5.82;2.38;;;21.40;93.50;;;;;;4953286;29;20023;-74
2021/09/01 00:12:05;;;;;;;5.22;2.38;;;21.40;93.60;;;;;;4968449;28;20054;-78
2021/09/01 00:14:31;;;;;;;5.72;2.85;;;21.40;93.60;;;;;;4972097;28;20029;-77
2021/09/01 00:16:57;;;;;;;4.35;2.58;;;21.40;93.70;;;;;;4973722;28;20030;-77
2021/09/01 00:19:22;;;;;;;5.25;2.38;;;21.30;93.60;;;;;;4974401;28;20035;-78
2021/09/01 00:21:48;;;;;;;4.13;2.25;;;21.30;93.60;;;;;;4976095;28;20034;-76
2021/09/01 00:24:15;;;;;;;3.78;2.30;;;21.30;93.60;;;;;;4975918;28;20077;-77
2021/09/01 00:26:42;;;;;;;4.30;2.60;;;21.40;93.60;;;;;;4975632;28;20375;-78
2021/09/01 00:29:08;;;;;;;4.20;2.38;;;21.30;93.70;;;;;;4975943;28;20031;-77
2021/09/01 00:31:33;;;;;;;5.70;2.92;;;21.30;93.60;;;;;;4975074;28;20026;-79
2021/09/01 00:33:59;;;;;;;3.83;2.40;;;21.30;93.60;;;;;;4960474;28;20427;-79
2021/09/01 00:36:24;;;;;;;4.13;2.42;;;21.30;93.50;;;;;;4956330;29;20032;-76
2021/09/01 00:38:50;;;;;;;3.63;2.10;;;21.30;93.60;;;;;;4966214;28;20042;-76
2021/09/01 00:41:20;;;;;;;3.83;2.25;;;21.30;93.60;;;;;;4975224;28;20045;-75
2021/09/01 00:43:50;;;;;;;4.80;2.30;;;21.30;93.60;;;;;;4975626;28;20023;-78
2021/09/01 00:46:19;;;;;;;4.90;2.72;;;21.30;93.60;;;;;;4975280;28;20051;-75
2021/09/01 00:48:45;;;;;;;5.05;2.53;;;21.30;93.90;;;;;;4975400;28;20053;-75
2021/09/01 00:51:11;;;;;;;5.25;2.72;;;21.30;93.50;;;;;;4957857;28;20126;-74
2021/09/01 00:53:41;;;;;;;6.32;2.67;;;21.30;93.60;;;;;;4975840;28;20158;-79
2021/09/01 00:56:07;;;;;;;5.82;2.70;;;21.30;93.60;;;;;;4975157;28;20450;-77
2021/09/01 00:58:35;;;;;;;3.40;2.00;;;21.30;93.60;;;;;;4974094;28;20136;-76
2021/09/01 01:03:26;;;;;;;5.03;2.50;;;21.30;93.60;;;;;;4964381;28;20384;-78
2021/09/01 01:05:57;;;;;;;4.40;2.30;;;21.30;93.50;;;;;;4955958;29;20392;-77
2021/09/01 01:08:30;;;;;;;5.05;2.60;;;21.30;93.50;;;;;;4955827;29;20081;-79
2021/09/01 01:10:58;;;;;;;4.68;2.42;;;21.20;93.50;;;;;;4960759;28;20406;-76
2021/09/01 01:13:26;;;;;;;5.30;2.70;;;21.20;93.50;;;;;;4974510;28;20031;-76
2021/09/01 01:15:51;;;;;;;4.28;2.28;;;21.20;93.50;;;;;;4974833;28;20030;-78
2021/09/01 01:18:18;;;;;;;4.53;2.30;;;21.20;93.50;;;;;;4973896;28;20035;-81
2021/09/01 01:20:48;;;;;;;4.40;2.45;;;21.20;93.50;;;;;;4975002;28;20487;-78
2021/09/01 01:23:15;;;;;;;5.88;2.58;;;21.20;93.50;;;;;;4974799;28;20026;-75
2021/09/01 01:25:41;;;;;;;4.45;2.30;;;21.20;93.50;;;;;;4974649;28;20419;-76
2021/09/01 01:28:09;;;;;;;4.65;2.47;;;21.20;93.50;;;;;;4974920;28;20034;-76
2021/09/01 01:30:36;;;;;;;4.22;2.65;;;21.20;93.50;;;;;;4975224;28;20031;-80
2021/09/01 01:33:03;;;;;;;5.13;2.40;;;21.20;93.50;;;;;;4971417;28;20569;-81
2021/09/01 01:35:35;;;;;;;5.80;2.67;;;21.20;93.50;;;;;;4955306;29;20486;-81
2021/09/01 01:38:03;;;;;;;5.78;3.05;;;21.20;93.50;;;;;;4955431;29;20068;-78
2021/09/01 01:40:30;;;;;;;5.55;2.47;;;21.20;93.50;;;;;;4973173;28;20039;-78
2021/09/01 01:42:57;;;;;;;4.57;2.40;;;21.20;93.50;;;;;;4974060;28;20059;-77
2021/09/01 01:45:30;;;;;;;5.15;2.78;;;21.20;93.50;;;;;;4973916;28;20061;-81
2021/09/01 01:47:55;;;;;;;6.32;2.50;;;21.20;93.50;;;;;;4974464;28;20043;-79
2021/09/01 01:50:21;;;;;;;6.43;2.50;;;21.20;93.50;;;;;;4974072;28;20096;-78
2021/09/01 01:52:46;;;;;;;5.57;2.70;;;21.10;93.40;;;;;;4974514;28;20119;-78
2021/09/01 01:55:12;;;;;;;4.35;2.60;;;21.10;93.40;;;;;;4973785;28;20037;-80
2021/09/01 01:57:38;;;;;;;6.43;2.75;;;21.10;93.40;;;;;;4974102;28;20127;-76
2021/09/01 02:00:06;;;;;;;4.10;2.40;;;21.20;93.40;;;;;;4973992;28;20037;-76
2021/09/01 02:02:32;;;;;;;5.20;2.63;;;21.10;93.40;;;;;;4967809;28;20023;-78
2021/09/01 02:04:59;;;;;;;5.38;2.80;;;21.10;93.40;;;;;;4956194;28;20480;-80
2021/09/01 02:07:25;;;;;;;3.65;2.20;;;21.10;93.40;;;;;;4954372;29;20027;-80
2021/09/01 02:09:50;;;;;;;4.95;2.60;;;21.10;93.40;;;;;;4964946;28;20109;-80
2021/09/01 02:12:16;;;;;;;4.85;2.03;;;21.10;93.40;;;;;;4973192;28;20479;-79
2021/09/01 02:14:42;;;;;;;4.47;2.38;;;21.10;93.30;;;;;;4974086;28;20027;-78
2021/09/01 02:17:08;;;;;;;5.68;2.50;;;21.10;93.30;;;;;;4973893;28;20023;-80
2021/09/01 02:19:33;;;;;;;4.10;2.17;;;21.10;93.30;;;;;;4973812;28;20391;-78
2021/09/01 02:21:59;;;;;;;3.85;2.53;;;21.10;93.30;;;;;;4974029;28;20483;-81
2021/09/01 02:24:25;;;;;;;6.15;2.97;;;21.10;93.30;;;;;;4973714;28;20034;-81
2021/09/01 02:26:50;;;;;;;4.50;2.40;;;21.10;93.40;;;;;;4973864;28;20479;-80
2021/09/01 02:29:16;;;;;;;4.75;2.67;;;21.10;93.30;;;;;;4973537;28;20029;-77
2021/09/01 02:31:42;;;;;;;4.50;2.63;;;21.10;93.40;;;;;;4955932;28;20565;-81
2021/09/01 02:34:07;;;;;;;6.28;2.75;;;21.10;93.30;;;;;;4974050;28;20069;-79
2021/09/01 02:36:33;;;;;;;4.30;2.45;;;21.10;93.30;;;;;;4972773;28;20054;-75
2021/09/01 02:38:59;;;;;;;3.88;2.22;;;21.10;93.30;;;;;;4972581;28;20518;-77
2021/09/01 02:41:25;;;;;;;3.78;1.92;;;21.10;93.30;;;;;;4973248;28;20031;-77
2021/09/01 02:43:51;;;;;;;4.10;2.40;;;21.10;93.30;;;;;;4972386;28;20031;-79
2021/09/01 02:46:18;;;;;;;4.30;2.25;;;21.10;93.30;;;;;;4973285;28;20027;-77
2021/09/01 02:48:44;;;;;;;4.80;2.60;;;21.00;93.30;;;;;;4973159;28;20042;-76
2021/09/01 02:51:10;;;;;;;5.68;3.00;;;21.00;93.30;;;;;;4973112;28;20039;-76
2021/09/01 02:53:36;;;;;;;4.53;2.58;;;21.00;93.30;;;;;;4973689;28;20029;-76
2021/09/01 02:56:02;;;;;;;5.50;2.67;;;21.00;93.30;;;;;;4973305;28;20031;-76
2021/09/01 02:58:27;;;;;;;3.83;2.38;;;21.00;93.60;;;;;;4972249;28;20404;-75
2021/09/01 03:00:53;;;;;;;4.13;2.40;;;21.00;93.30;;;;;;4972573;28;20031;-78
2021/09/01 03:03:18;;;;;;;3.55;2.15;;;21.00;93.30;;;;;;4972877;28;20395;-79
2021/09/01 03:05:44;;;;;;;5.05;2.50;;;21.00;93.20;;;;;;4973042;28;20029;-75
2021/09/01 03:08:10;;;;;;;4.93;2.53;;;21.00;93.20;;;;;;4972581;28;20031;-78
2021/09/01 03:10:35;;;;;;;5.30;2.65;;;21.00;93.20;;;;;;4972496;28;20037;-76
2021/09/01 03:13:01;;;;;;;4.85;2.60;;;21.00;93.20;;;;;;4972951;28;20022;-76
2021/09/01 03:15:27;;;;;;;5.97;2.85;;;21.00;93.20;;;;;;4972560;28;20042;-76
2021/09/01 03:17:52;;;;;;;3.35;1.67;;;21.00;93.20;;;;;;4972256;28;20530;-76
2021/09/01 03:20:18;;;;;;;5.10;3.10;;;21.00;93.30;;;;;;4972642;28;20391;-77
2021/09/01 03:22:44;;;;;;;5.63;2.65;;;21.00;93.20;;;;;;4972912;28;20026;-77
2021/09/01 03:25:10;;;;;;;5.22;2.28;;;21.00;93.10;;;;;;4972666;28;20031;-77
2021/09/01 03:27:36;;;;;;;4.13;2.40;;;21.00;93.10;;;;;;4972895;28;20101;-83
2021/09/01 03:30:02;;;;;;;4.45;2.22;;;21.00;93.10;;;;;;4972814;28;20158;-77
2021/09/01 03:32:28;;;;;;;4.78;3.15;;;21.00;93.20;;;;;;4972133;28;20039;-81
2021/09/01 03:34:53;;;;;;;4.85;2.58;;;21.00;93.20;;;;;;4972396;28;20034;-82
2021/09/01 03:37:19;;;;;;;5.30;2.58;;;21.00;93.20;;;;;;4972409;28;20495;-78
2021/09/01 03:39:45;;;;;;;5.07;2.25;;;21.00;93.20;;;;;;4972679;28;20035;-79
2021/09/01 03:42:10;;;;;;;5.15;2.80;;;21.00;93.20;;;;;;4972238;28;20041;-76
2021/09/01 03:44:36;;;;;;;6.65;3.13;;;21.00;93.20;;;;;;4972275;28;20026;-76
2021/09/01 03:47:02;;;;;;;5.38;2.83;;;21.00;93.20;;;;;;4972182;28;20050;-79
2021/09/01 03:49:27;;;;;;;5.53;2.70;;;20.90;93.20;;;;;;4971751;28;20031;-78
2021/09/01 03:51:53;;;;;;;6.20;2.88;;;21.00;93.20;;;;;;4971358;28;20468;-79
2021/09/01 03:54:19;;;;;;;5.53;2.53;;;21.00;93.20;;;;;;4972225;28;20030;-77
2021/09/01 03:56:44;;;;;;;4.22;2.40;;;21.00;93.20;;;;;;4971991;28;20031;-78
2021/09/01 03:59:10;;;;;;;4.28;2.33;;;20.90;93.20;;;;;;4972190;28;20042;-78
2021/09/01 04:01:36;;;;;;;5.30;2.80;;;20.90;93.10;;;;;;4954402;28;20027;-78
2021/09/01 04:04:02;;;;;;;2.67;1.90;;;20.90;93.10;;;;;;4971961;28;20034;-80
2021/09/01 04:06:28;;;;;;;4.72;2.78;;;20.90;93.10;;;;;;4972119;28;20093;-80
2021/09/01 04:08:54;;;;;;;5.40;2.78;;;20.90;93.10;;;;;;4972318;28;20495;-79
2021/09/01 04:11:19;;;;;;;6.30;2.90;;;20.90;93.10;;;;;;4971792;28;20027;-80
2021/09/01 04:13:45;;;;;;;5.63;2.80;;;20.90;93.10;;;;;;4971919;28;20042;-78
2021/09/01 04:16:11;;;;;;;4.82;2.40;;;20.90;93.10;;;;;;4971776;28;20491;-74
2021/09/01 04:18:36;;;;;;;6.07;2.72;;;20.90;93.10;;;;;;4971678;28;20077;-79
2021/09/01 04:21:02;;;;;;;5.32;2.72;;;20.90;93.10;;;;;;4972247;28;20379;-75
2021/09/01 04:23:28;;;;;;;7.32;3.13;;;20.90;93.00;;;;;;4972059;28;20041;-79
2021/09/01 04:25:54;;;;;;;4.85;2.60;;;20.90;93.00;;;;;;4971836;28;20027;-79
2021/09/01 04:28:19;;;;;;;5.72;2.42;;;20.90;93.00;;;;;;4971602;28;20380;-80
2021/09/01 04:30:45;;;;;;;3.72;2.35;;;20.90;92.90;;;;;;4971275;28;20019;-75
2021/09/01 04:33:11;;;;;;;4.88;2.47;;;20.90;92.90;;;;;;4971101;28;20114;-77
2021/09/01 04:35:37;;;;;;;4.95;2.72;;;20.90;93.00;;;;;;4972395;28;20023;-74
2021/09/01 04:38:03;;;;;;;5.20;2.50;;;20.90;93.00;;;;;;4971394;28;20035;-77
2021/09/01 04:40:29;;;;;;;5.88;2.80;;;20.90;93.00;;;;;;4971237;28;20856;-75
2021/09/01 04:42:54;;;;;;;4.63;2.30;;;20.90;93.00;;;;;;4971732;28;20090;-74
2021/09/01 04:45:20;;;;;;;4.68;2.20;;;20.90;93.00;;;;;;4971456;28;20491;-77
2021/09/01 04:47:45;;;;;;;4.75;2.28;;;20.90;93.00;;;;;;4971651;28;20436;-76
2021/09/01 04:50:12;;;;;;;5.90;2.72;;;20.90;93.00;;;;;;4970455;28;20387;-81
2021/09/01 04:52:37;;;;;;;4.78;2.40;;;20.90;93.00;;;;;;4972223;28;20029;-79
2021/09/01 04:55:04;;;;;;;7.88;2.58;;;20.90;93.00;;;;;;4971212;28;20023;-81
2021/09/01 04:57:30;;;;;;;4.97;2.35;;;20.90;93.00;;;;;;4971250;28;20041;-79
2021/09/01 04:59:55;;;;;;;5.32;2.75;;;20.90;93.00;;;;;;4971494;28;20026;-77
2021/09/01 05:02:21;;;;;;;5.95;3.05;;;20.90;93.10;;;;;;4972166;28;20030;-79
2021/09/01 05:04:47;;;;;;;5.25;2.97;;;20.90;93.00;;;;;;4963050;28;20035;-78
2021/09/01 05:07:12;;;;;;;5.57;2.65;;;20.90;93.00;;;;;;4963726;28;20099;-77
2021/09/01 05:09:38;;;;;;;3.88;2.08;;;20.90;93.00;;;;;;4975327;28;20022;-77
2021/09/01 05:12:04;;;;;;;7.05;2.67;;;20.80;93.00;;;;;;4975347;28;20039;-78
2021/09/01 05:14:30;;;;;;;5.88;2.92;;;20.90;93.00;;;;;;4975048;28;20483;-75
2021/09/01 05:16:55;;;;;;;5.05;2.60;;;20.80;93.00;;;;;;4974679;28;20027;-79
2021/09/01 05:19:21;;;;;;;4.55;2.97;;;20.90;93.00;;;;;;4974311;28;20051;-77
2021/09/01 05:21:51;;;;;;;6.07;2.70;;;20.80;92.90;;;;;;4975128;28;20034;-78
2021/09/01 05:24:37;;;;;;;4.10;2.47;;;20.80;92.90;;;;;;4974512;28;20054;-80
2021/09/01 05:27:08;;;;;;;4.47;2.47;;;20.80;92.90;;;;;;4974827;28;20023;-77
2021/09/01 05:29:42;;;;;;;4.38;2.08;;;20.80;92.90;;;;;;4970205;28;20522;-78
2021/09/01 05:32:21;;;;;;;6.53;2.70;;;20.80;92.90;;;;;;4964697;28;20093;-79
2021/09/01 05:34:50;;;;;;;4.20;2.40;;;20.80;92.80;;;;;;4974704;28;20070;-79
2021/09/01 05:37:16;;;;;;;5.35;2.50;;;20.80;92.80;;;;;;4974519;28;20383;-78
2021/09/01 05:39:47;;;;;;;5.07;2.40;;;20.80;92.90;;;;;;4957673;28;20416;-78
2021/09/01 05:42:19;;;;;;;5.88;2.50;;;20.80;92.90;;;;;;4974213;28;20039;-75
2021/09/01 05:44:44;;;;;;;5.63;2.75;;;20.80;92.90;;;;;;4974470;28;20027;-80
2021/09/01 05:47:12;;;;;;;5.20;2.55;;;20.80;92.90;;;;;;4972586;28;20205;-73
2021/09/01 05:49:40;;;;;;;5.00;2.88;;;20.80;92.90;;;;;;4974197;28;20102;-74
2021/09/01 05:52:07;;;;;;;4.47;2.40;;;20.80;92.90;;;;;;4974201;28;20039;-73
2021/09/01 05:54:33;;;;;;;4.35;2.50;;;20.80;92.90;;;;;;4974071;28;20081;-74
2021/09/01 05:57:09;;;;;;;7.72;2.83;;;20.80;93.00;;;;;;4974480;28;20034;-74
2021/09/01 05:59:56;;;;;;;6.53;2.47;;;20.80;93.00;;;;;;4974839;28;20033;-80
2021/09/01 06:02:30;;;;;;;4.28;2.88;;;20.80;93.00;;;;;;4974005;28;20031;-74
2021/09/01 06:05:02;;;;;;;4.50;2.20;;;20.80;93.10;;;;;;4973809;28;20094;-88
2021/09/01 06:07:29;;;;;;;7.22;2.70;;;20.80;93.10;;;;;;4974152;28;20026;-81
2021/09/01 06:09:59;;;;;;;8.82;2.60;;;20.80;93.10;;;;;;4974071;28;20467;-83
2021/09/01 06:12:27;;;;;;;8.07;3.10;;;20.80;93.20;;;;;;4973857;28;20396;-79
2021/09/01 06:14:54;;;;;;;8.02;2.53;;;20.80;93.30;;;;;;4973272;28;20027;-80
2021/09/01 06:17:20;;;;;;;4.78;2.65;;;20.80;93.30;;;;;;4973668;28;20030;-74
2021/09/01 06:19:46;;;;;;;10.15;3.45;;;20.80;93.30;;;;;;4974101;28;20038;-75
2021/09/01 06:22:13;;;;;;;16.13;3.50;;;20.80;93.40;;;;;;4972875;28;20031;-75
2021/09/01 06:24:39;;;;;;;10.52;7.78;;;20.80;93.20;;;;;;4974071;28;20022;-74
2021/09/01 06:27:04;;;;;;;15.43;8.00;;;20.80;93.50;;;;;;4974324;28;20029;-76
2021/09/01 06:29:30;;;;;;;15.07;6.80;;;20.80;93.30;;;;;;4973532;28;20025;-77
2021/09/01 06:31:56;;;;;;;14.20;7.82;;;20.90;93.50;;;;;;4973761;28;20092;-79
2021/09/01 06:34:22;;;;;;;16.60;7.22;;;20.80;93.70;;;;;;4972292;28;20115;-80
2021/09/01 06:36:48;;;;;;;13.77;7.65;;;20.80;93.70;;;;;;4973809;28;20509;-80
2021/09/01 06:39:13;;;;;;;78.60;60.72;;;20.80;93.60;;;;;;4971985;28;20380;-78
2021/09/01 06:41:39;;;;;;;157.10;116.40;;;20.80;94.00;;;;;;4973404;28;20041;-79
2021/09/01 06:44:05;;;;;;;70.82;52.83;;;20.80;93.90;;;;;;4973962;28;20022;-79
2021/09/01 06:46:31;;;;;;;49.72;36.35;;;20.90;94.00;;;;;;4972788;28;20509;-80
2021/09/01 06:48:56;;;;;;;59.20;42.03;;;20.90;93.90;;;;;;4973437;28;20038;-79
2021/09/01 06:51:22;;;;;;;51.95;38.22;;;20.90;94.00;;;;;;4973286;28;20022;-80
2021/09/01 06:53:48;;;;;;;40.85;28.65;;;20.90;93.90;;;;;;4973453;28;20522;-78
2021/09/01 06:56:14;;;;;;;34.30;24.63;;;20.90;93.50;;;;;;4969173;28;20019;-82
2021/09/01 06:58:39;;;;;;;40.35;26.92;;;20.80;93.30;;;;;;4973030;28;20048;-79
2021/09/01 07:01:05;;;;;;;34.85;24.30;;;20.80;93.50;;;;;;4973293;28;20069;-78
2021/09/01 07:03:31;;;;;;;23.58;13.73;;;20.80;93.50;;;;;;4972868;28;20035;-82
2021/09/01 07:05:56;;;;;;;30.50;17.58;;;20.80;93.00;;;;;;4972875;28;20027;-79
2021/09/01 07:08:23;;;;;;;29.92;17.60;;;20.80;93.00;;;;;;4971559;28;20149;-80
2021/09/01 07:10:49;;;;;;;30.58;17.98;;;;;;;;;;4971835;28;20018;-81
2021/09/01 07:13:15;;;;;;;32.78;19.52;;;20.80;93.10;;;;;;4971875;28;20031;-79
2021/09/01 07:15:42;;;;;;;31.20;17.45;;;20.80;93.10;;;;;;4972599;28;20066;-78
2021/09/01 07:18:08;;;;;;;28.08;16.33;;;20.80;93.20;;;;;;4973155;28;20039;-81
2021/09/01 07:20:34;;;;;;;24.63;15.52;;;20.90;93.20;;;;;;4973000;28;20026;-82
2021/09/01 07:22:59;;;;;;;24.08;13.98;;;20.90;93.20;;;;;;4972917;28;20034;-77
2021/09/01 07:25:25;;;;;;;26.40;15.68;;;20.90;93.20;;;;;;4972467;28;20445;-79
2021/09/01 07:27:51;;;;;;;24.20;15.02;;;20.90;93.30;;;;;;4972806;28;20026;-79
2021/09/01 07:30:17;;;;;;;20.05;13.77;;;20.90;93.30;;;;;;4972593;28;20021;-80
2021/09/01 07:32:43;;;;;;;21.10;13.68;;;20.90;93.30;;;;;;4971509;28;20038;-79
2021/09/01 07:35:09;;;;;;;25.65;12.90;;;20.90;93.30;;;;;;4972878;28;20102;-75
2021/09/01 07:37:45;;;;;;;23.45;13.52;;;20.90;93.30;;;;;;4972902;28;20031;-78
2021/09/01 07:40:11;;;;;;;;;;;20.80;93.30;;;;;;4972836;28;20029;-79
2021/09/01 07:42:37;;;;;;;18.63;11.75;;;20.90;93.30;;;;;;4972735;28;19921;-79
2021/09/01 07:45:04;;;;;;;21.58;12.38;;;20.90;93.30;;;;;;4972574;28;20027;-76
2021/09/01 07:47:29;;;;;;;19.27;11.88;;;20.90;93.30;;;;;;4972200;28;20026;-78
2021/09/01 07:49:55;;;;;;;18.70;11.02;;;20.90;93.30;;;;;;4972468;28;20546;-77
2021/09/01 07:52:21;;;;;;;20.35;11.75;;;20.90;93.30;;;;;;4972205;28;20491;-79
2021/09/01 07:54:47;;;;;;;13.68;9.50;;;20.90;93.30;;;;;;4972451;28;20050;-80
2021/09/01 07:57:13;;;;;;;20.55;11.95;;;20.90;93.10;;;;;;4972046;28;20020;-76
2021/09/01 07:59:38;;;;;;;15.73;10.40;;;20.90;93.10;;;;;;4972521;28;20035;-75
2021/09/01 08:02:04;;;;;;;15.50;9.98;;;20.90;93.00;;;;;;4972694;28;20110;-78
2021/09/01 08:04:30;;;;;;;16.58;10.43;;;20.90;93.00;;;;;;4972092;28;20027;-81
2021/09/01 08:06:55;;;;;;;16.35;9.90;;;20.90;92.90;;;;;;4972369;28;20082;-81
2021/09/01 08:09:21;;;;;;;16.33;9.68;;;20.90;92.90;;;;;;4972044;28;20106;-80
2021/09/01 08:11:47;;;;;;;15.80;9.77;;;20.90;92.90;;;;;;4972298;28;20027;-78
2021/09/01 08:14:12;;;;;;;15.07;8.75;;;20.90;92.90;;;;;;4972066;28;20110;-76
2021/09/01 08:16:38;;;;;;;14.27;8.75;;;20.90;92.90;;;;;;4972552;28;20487;-78
2021/09/01 08:19:04;;;;;;;16.33;8.90;;;20.90;92.80;;;;;;4972497;28;20031;-75
2021/09/01 08:21:29;;;;;;;15.25;8.68;;;20.90;92.80;;;;;;4972045;28;20023;-82
2021/09/01 08:23:55;;;;;;;17.40;9.82;;;20.90;92.80;;;;;;4972168;28;20034;-77
2021/09/01 08:26:21;;;;;;;15.57;8.68;;;20.90;92.80;;;;;;4971932;28;20049;-77
2021/09/01 08:28:46;;;;;;;13.60;8.63;;;20.90;92.80;;;;;;4972025;28;20162;-82
2021/09/01 08:31:12;;;;;;;12.90;8.90;;;20.90;92.70;;;;;;4971895;28;20022;-80
2021/09/01 08:33:39;;;;;;;12.98;8.75;;;20.90;92.70;;;;;;4972470;28;20553;-78
2021/09/01 08:36:05;;;;;;;14.70;8.00;;;20.90;92.70;;;;;;4972438;28;20046;-81
2021/09/01 08:38:30;;;;;;;12.80;7.85;;;20.90;92.70;;;;;;4975064;28;20031;-81
2021/09/01 08:40:56;;;;;;;15.95;7.80;;;20.90;92.60;;;;;;4975723;28;20081;-82
2021/09/01 08:43:22;;;;;;;12.77;6.97;;;20.90;92.60;;;;;;4975521;28;20110;-82
2021/09/01 08:45:48;;;;;;;12.80;7.53;;;20.90;92.60;;;;;;4975751;28;20034;-79
2021/09/01 08:48:16;;;;;;;13.32;7.55;;;20.90;92.60;;;;;;4975505;28;20023;-80
2021/09/01 08:50:42;;;;;;;11.05;7.28;;;20.90;92.60;;;;;;4975634;28;20035;-77
2021/09/01 08:53:07;;;;;;;12.70;6.80;;;21.00;92.60;;;;;;4975990;28;20027;-78
2021/09/01 08:55:33;;;;;;;11.02;7.32;;;21.00;92.60;;;;;;4975332;28;20023;-79
2021/09/01 08:58:00;;;;;;;13.50;6.82;;;21.00;92.60;;;;;;4975441;28;20459;-77
2021/09/01 09:00:26;;;;;;;10.50;7.13;;;21.00;92.50;;;;;;4975229;28;20070;-78
2021/09/01 09:03:00;;;;;;;11.43;7.20;;;21.00;92.50;;;;;;4975485;28;20452;-80
2021/09/01 09:05:40;;;;;;;11.75;7.30;;;21.00;92.40;;;;;;4975163;28;20491;-82
2021/09/01 09:08:15;;;;;;;12.45;7.05;;;21.00;92.40;;;;;;4975625;28;20062;-78
2021/09/01 09:10:45;;;;;;;12.00;7.85;;;21.00;92.40;;;;;;4975337;28;20110;-80
2021/09/01 09:13:23;;;;;;;12.80;6.78;;;21.00;92.40;;;;;;4975087;28;20470;-80
2021/09/01 09:16:09;;;;;;;12.48;6.93;;;21.00;92.30;;;;;;4975186;28;20038;-79
2021/09/01 09:18:36;;;;;;;14.63;7.00;;;21.10;92.30;;;;;;4975341;28;20062;-81
2021/09/01 09:21:15;;;;;;;10.27;6.78;;;21.00;92.30;;;;;;4975040;28;20046;-80
2021/09/01 09:23:42;;;;;;;11.15;6.65;;;21.00;92.20;;;;;;4975064;28;20023;-80
2021/09/01 09:26:22;;;;;;;11.30;6.20;;;21.10;92.30;;;;;;4975450;28;20037;-79
2021/09/01 09:29:06;;;;;;;11.13;6.45;;;21.10;92.20;;;;;;4975075;28;20026;-79
2021/09/01 09:31:32;;;;;;;9.55;5.78;;;21.10;92.20;;;;;;4974749;28;20022;-80
2021/09/01 09:34:10;;;;;;;9.43;5.85;;;21.10;92.30;;;;;;4974883;28;20351;-79
2021/09/01 09:36:36;;;;;;;10.07;6.38;;;21.10;92.20;;;;;;4975291;28;20085;-81
2021/09/01 09:39:03;;;;;;;9.57;6.05;;;21.10;92.20;;;;;;4974731;28;20066;-76
2021/09/01 09:41:29;;;;;;;11.43;6.38;;;21.10;92.20;;;;;;4974386;28;20408;-81
2021/09/01 09:44:15;;;;;;;8.07;5.47;;;21.00;92.10;;;;;;4974710;28;20027;-78
2021/09/01 09:46:47;;;;;;;8.00;5.05;;;21.10;92.10;;;;;;4974822;28;20093;-77
2021/09/01 09:49:13;;;;;;;9.13;5.43;;;21.10;92.10;;;;;;4973053;28;20037;-76
2021/09/01 09:51:41;;;;;;;9.35;6.07;;;21.10;92.10;;;;;;4974874;28;20027;-76
2021/09/01 09:54:17;;;;;;;9.02;6.03;;;21.10;92.10;;;;;;4974706;28;20023;-76
2021/09/01 09:56:44;;;;;;;7.22;5.03;;;21.10;92.00;;;;;;4974437;28;20035;-78
2021/09/01 09:59:21;;;;;;;10.63;5.68;;;21.10;92.00;;;;;;4974203;28;20035;-77
2021/09/01 10:01:47;;;;;;;12.75;6.13;;;21.10;92.00;;;;;;4974474;28;20023;-82
2021/09/01 10:04:13;;;;;;;9.50;5.80;;;21.10;92.00;;;;;;4974200;28;20120;-79
2021/09/01 10:06:40;;;;;;;10.07;6.15;;;21.20;91.90;;;;;;4974291;28;20066;-77
2021/09/01 10:09:06;;;;;;;10.73;5.97;;;21.20;91.90;;;;;;4974593;28;20018;-80
2021/09/01 10:11:33;;;;;;;9.27;5.70;;;21.20;91.90;;;;;;4974014;28;20161;-77
2021/09/01 10:13:59;;;;;;;8.73;5.45;;;21.20;91.80;;;;;;4974160;28;20031;-75
2021/09/01 10:16:34;;;;;;;13.10;5.63;;;21.20;91.80;;;;;;4973943;28;20554;-74
2021/09/01 10:19:02;;;;;;;11.35;5.60;;;21.20;91.80;;;;;;4973940;28;20061;-79
2021/09/01 10:21:30;;;;;;;9.68;5.47;;;21.20;91.70;;;;;;4973675;28;20034;-74
2021/09/01 10:23:56;;;;;;;7.57;5.05;;;21.20;91.70;;;;;;4973908;28;20025;-76
2021/09/01 10:26:26;;;;;;;9.15;6.00;;;21.20;91.70;;;;;;4973773;28;20118;-80
2021/09/01 10:28:53;;;;;;;6.72;4.43;;;21.20;91.70;;;;;;4973727;28;20403;-78
2021/09/01 10:31:20;;;;;;;9.02;6.10;;;21.20;91.60;;;;;;4973496;28;20018;-76
2021/09/01 10:33:48;;;;;;;9.15;5.85;;;21.30;91.70;;;;;;4973646;28;20035;-80
2021/09/01 10:36:23;;;;;;;8.23;5.15;;;21.20;91.70;;;;;;4973431;28;20052;-81
2021/09/01 10:39:10;;;;;;;7.53;5.07;;;21.20;91.60;;;;;;4973635;28;20100;-78
2021/09/01 10:41:38;;;;;;;6.97;5.18;;;21.20;91.60;;;;;;4973760;28;20038;-79
2021/09/01 10:44:07;;;;;;;7.28;5.15;;;21.30;91.60;;;;;;4973801;28;20102;-78
2021/09/01 10:46:54;;;;;;;9.35;5.10;;;21.20;91.50;;;;;;4973469;28;20023;-75
2021/09/01 10:49:21;;;;;;;6.82;4.55;;;21.20;91.40;;;;;;4973266;28;20034;-76
2021/09/01 10:51:48;;;;;;;7.75;4.70;;;21.30;91.50;;;;;;4973432;28;20038;-75
2021/09/01 10:54:33;;;;;;;8.15;4.57;;;21.20;91.50;;;;;;4973237;28;20487;-78
2021/09/01 10:57:00;;;;;;;7.05;4.60;;;21.30;91.60;;;;;;4973379;28;20038;-81
2021/09/01 10:59:28;;;;;;;7.32;4.72;;;21.30;91.50;;;;;;4972605;28;20031;-80
2021/09/01 11:02:15;;;;;;;9.57;5.40;;;21.30;91.60;;;;;;4973276;28;20023;-80
2021/09/01 11:05:08;;;;;;;8.00;4.90;;;21.30;91.50;;;;;;4973338;28;20027;-81
2021/09/01 11:07:34;;;;;;;10.05;5.15;;;21.30;91.40;;;;;;4973660;28;20046;-81
2021/09/01 11:10:05;;;;;;;10.10;5.85;;;21.30;91.40;;;;;;4973088;28;20058;-81
2021/09/01 11:12:33;;;;;;;8.25;4.70;;;21.40;91.40;;;;;;4972579;28;20062;-82
2021/09/01 11:14:59;;;;;;;8.00;4.80;;;21.40;91.40;;;;;;4972986;28;20041;-81
2021/09/01 11:17:27;;;;;;;6.60;4.68;;;21.40;91.40;;;;;;4972646;28;20023;-80
2021/09/01 11:19:57;;;;;;;6.53;4.88;;;21.30;91.30;;;;;;4972958;28;20045;-81
2021/09/01 11:22:33;;;;;;;6.63;4.90;;;21.40;91.30;;;;;;4972674;28;20505;-81
2021/09/01 11:25:06;;;;;;;8.48;4.63;;;21.40;91.30;;;;;;4972952;28;20031;-82
2021/09/01 11:27:34;;;;;;;7.93;4.90;;;21.40;91.30;;;;;;4972649;28;20023;-80
2021/09/01 11:30:05;;;;;;;6.85;4.85;;;21.40;91.30;;;;;;4972716;28;20062;-83
2021/09/01 11:32:31;;;;;;;7.32;4.85;;;21.40;91.40;;;;;;4972493;28;20394;-81
2021/09/01 11:35:00;;;;;;;6.68;4.65;;;21.40;91.30;;;;;;4972690;28;20031;-81
2021/09/01 11:37:26;;;;;;;6.13;4.30;;;21.40;91.20;;;;;;4972093;28;20025;-79
2021/09/01 11:39:52;;;;;;;6.25;4.35;;;21.40;91.20;;;;;;4972211;28;20042;-83
2021/09/01 11:42:18;;;;;;;7.97;4.05;;;21.40;91.20;;;;;;4972587;28;20026;-83
2021/09/01 11:44:59;;;;;;;8.20;4.80;;;21.40;91.30;;;;;;4972832;28;20122;-81
2021/09/01 11:47:25;;;;;;;8.23;5.25;;;21.40;91.20;;;;;;4972677;28;20015;-82
2021/09/01 11:49:56;;;;;;;6.75;4.47;;;21.40;91.10;;;;;;4972741;28;20034;-84
2021/09/01 11:52:32;;;;;;;8.52;5.25;;;21.40;91.10;;;;;;4972625;28;20022;-85
2021/09/01 11:54:58;;;;;;;7.97;4.72;;;21.40;91.10;;;;;;4972755;28;20069;-83
2021/09/01 11:57:29;;;;;;;7.57;5.00;;;21.40;91.10;;;;;;4972602;28;20022;-83
2021/09/01 11:59:57;;;;;;;7.30;4.90;;;21.40;91.10;;;;;;4972878;28;20506;-81
2021/09/01 12:02:26;;;;;;;7.72;4.07;;;21.40;91.10;;;;;;4972432;28;20411;-81
2021/09/01 12:04:52;;;;;;;6.55;4.40;;;21.40;91.20;;;;;;4955840;28;20093;-88
2021/09/01 12:07:25;;;;;;;8.95;5.43;;;21.50;91.30;;;;;;4972719;28;20515;-87
2021/09/01 12:09:58;;;;;;;7.07;4.75;;;21.40;91.30;;;;;;4972022;28;20026;-87
2021/09/01 12:12:35;;;;;;;10.48;4.65;;;21.40;91.30;;;;;;4975454;28;20031;-84
2021/09/01 12:15:15;;;;;;;5.65;4.40;;;21.40;91.30;;;;;;4976629;28;20027;-88
2021/09/01 12:17:44;;;;;;;7.10;4.43;;;21.50;91.40;;;;;;4976366;28;20443;-84
2021/09/01 12:20:16;;;;;;;6.88;4.30;;;21.40;91.30;;;;;;4976503;28;20027;-83
2021/09/01 12:22:43;;;;;;;8.40;4.63;;;21.50;91.30;;;;;;4977011;28;20029;-86
2021/09/01 12:25:14;;;;;;;9.07;4.95;;;21.40;91.30;;;;;;4977107;28;20530;-75
2021/09/01 12:28:04;;;;;;;6.00;3.80;;;21.50;91.30;;;;;;4976937;28;20038;-88
2021/09/01 12:30:33;;;;;;;7.38;4.40;;;21.50;91.30;;;;;;4976624;28;20166;-86
2021/09/01 12:33:04;;;;;;;7.97;4.55;;;21.40;91.60;;;;;;4977028;28;20105;-89
2021/09/01 12:35:33;;;;;;;7.78;4.15;;;21.50;91.30;;;;;;4976317;28;20039;-89
2021/09/01 12:38:03;;;;;;;6.07;4.20;;;21.50;91.30;;;;;;4976750;28;20023;-90
2021/09/01 12:40:40;;;;;;;6.45;4.38;;;21.50;91.30;;;;;;4976227;28;20125;-88
2021/09/01 12:43:09;;;;;;;6.80;3.88;;;21.50;91.20;;;;;;4976866;28;20499;-91
2021/09/01 12:45:37;;;;;;;7.07;4.82;;;21.50;91.20;;;;;;4977025;28;20031;-86
2021/09/01 12:48:09;;;;;;;5.32;4.15;;;21.50;91.20;;;;;;4976250;28;20030;-86
2021/09/01 12:50:36;;;;;;;7.50;4.70;;;21.50;91.30;;;;;;4976494;28;20026;-82